createdAt,value
2023-03-07T00:00:52.728Z,87.48
2023-03-07T00:03:20.738Z,87.41
2023-03-07T00:05:47.027Z,87.35
2023-03-07T00:08:13.403Z,87.22
2023-03-07T00:10:39.700Z,87.23
2023-03-07T00:13:08.326Z,87.42
2023-03-07T00:15:37.200Z,87.44
2023-03-07T00:18:06.614Z,86.92
2023-03-07T00:20:32.923Z,87.83
2023-03-07T00:22:59.252Z,87.04
2023-03-07T00:25:25.594Z,86.79
2023-03-07T00:27:51.952Z,86.91
2023-03-07T00:30:18.311Z,87.11
2023-03-07T00:32:44.574Z,87.16
2023-03-07T00:35:10.829Z,87.13
2023-03-07T00:37:37.116Z,87.38
2023-03-07T00:40:03.820Z,87.38
2023-03-07T00:42:30.132Z,87.60
2023-03-07T00:44:56.381Z,87.12
2023-03-07T00:47:22.981Z,87.61
2023-03-07T00:49:49.246Z,87.76
2023-03-07T00:52:15.494Z,87.00
2023-03-07T00:54:41.750Z,86.28
2023-03-07T00:57:08.059Z,86.26
2023-03-07T00:59:34.354Z,86.10
2023-03-07T01:02:00.749Z,86.06
2023-03-07T01:04:27.070Z,86.03
2023-03-07T01:06:53.370Z,85.74
2023-03-07T01:09:19.693Z,85.67
2023-03-07T01:11:45.985Z,85.39
2023-03-07T01:14:12.466Z,85.89
2023-03-07T01:16:39.131Z,85.71
2023-03-07T01:19:07.233Z,85.92
2023-03-07T01:21:35.271Z,85.59
2023-03-07T01:24:01.591Z,85.97
2023-03-07T01:26:29.115Z,86.03
2023-03-07T01:28:56.564Z,85.26
2023-03-07T01:31:23.174Z,85.33
2023-03-07T01:33:50.256Z,85.48
2023-03-07T01:36:17.034Z,85.06
2023-03-07T01:38:43.388Z,85.01
2023-03-07T01:41:09.633Z,85.27
2023-03-07T01:43:36.107Z,84.83
2023-03-07T01:46:17.932Z,85.03
2023-03-07T01:48:49.035Z,84.46
2023-03-07T01:51:15.457Z,85.11
2023-03-07T01:53:41.912Z,100.00
2023-03-07T01:56:08.879Z,100.00
2023-03-07T01:58:37.884Z,100.00
2023-03-07T02:01:04.999Z,100.00
2023-03-07T02:03:39.879Z,100.00
2023-03-07T02:06:09.361Z,100.00
2023-03-07T02:08:36.965Z,100.00
2023-03-07T02:11:03.480Z,100.00
2023-03-07T02:13:29.814Z,100.00
2023-03-07T02:15:57.395Z,100.00
2023-03-07T02:18:26.450Z,100.00
2023-03-07T02:20:52.732Z,100.00
2023-03-07T02:23:30.624Z,100.00
2023-03-07T02:26:01.910Z,100.00
2023-03-07T02:28:28.325Z,100.00
2023-03-07T02:30:54.631Z,100.00
2023-03-07T02:33:24.720Z,100.00
2023-03-07T02:36:03.083Z,100.00
2023-03-07T02:38:31.006Z,100.00
2023-03-07T02:40:57.413Z,100.00
2023-03-07T02:43:24.398Z,100.00
2023-03-07T02:45:50.819Z,100.00
2023-03-07T02:48:17.180Z,100.00
2023-03-07T02:50:43.491Z,100.00
2023-03-07T02:53:09.785Z,100.00
2023-03-07T02:55:36.129Z,100.00
2023-03-07T02:58:02.490Z,100.00
2023-03-07T03:00:28.910Z,100.00
2023-03-07T03:02:57.310Z,100.00
2023-03-07T03:05:23.735Z,100.00
2023-03-07T03:07:50.090Z,100.00
2023-03-07T03:10:17.632Z,100.00
2023-03-07T03:12:44.327Z,100.00
2023-03-07T03:15:10.893Z,100.00
2023-03-07T03:17:37.265Z,100.00
2023-03-07T03:20:13.653Z,100.00
2023-03-07T03:22:40.629Z,100.00
2023-03-07T03:25:08.555Z,100.00
2023-03-07T03:27:34.819Z,100.00
2023-03-07T03:30:01.297Z,100.00
2023-03-07T03:32:27.618Z,100.00
2023-03-07T03:34:54.041Z,100.00
2023-03-07T03:37:20.347Z,100.00
2023-03-07T03:39:46.600Z,100.00
2023-03-07T03:42:12.953Z,100.00
2023-03-07T03:44:39.285Z,100.00
2023-03-07T03:47:05.696Z,100.00
2023-03-07T03:49:32.955Z,100.00
2023-03-07T03:51:59.278Z,100.00
2023-03-07T03:54:25.675Z,100.00
2023-03-07T03:56:53.230Z,100.00
2023-03-07T03:59:19.531Z,100.00
2023-03-07T04:01:46.006Z,100.00
2023-03-07T04:04:12.649Z,100.00
2023-03-07T04:06:38.972Z,100.00
2023-03-07T04:09:05.487Z,100.00
2023-03-07T04:11:32.438Z,100.00
2023-03-07T04:13:59.393Z,100.00
2023-03-07T04:16:25.924Z,100.00
2023-03-07T04:18:52.350Z,100.00
2023-03-07T04:21:19.560Z,100.00
2023-03-07T04:23:45.909Z,100.00
2023-03-07T04:26:12.273Z,100.00
2023-03-07T04:28:46.123Z,100.00
2023-03-07T04:31:13.797Z,100.00
2023-03-07T04:33:40.180Z,100.00
2023-03-07T04:36:06.831Z,100.00
2023-03-07T04:38:33.195Z,100.00
2023-03-07T04:40:59.520Z,100.00
2023-03-07T04:43:25.994Z,100.00
2023-03-07T04:45:53.045Z,100.00
2023-03-07T04:48:20.000Z,100.00
2023-03-07T04:50:48.502Z,100.00
2023-03-07T04:53:14.757Z,100.00
2023-03-07T04:55:41.091Z,100.00
2023-03-07T04:58:12.677Z,100.00
2023-03-07T05:00:40.270Z,100.00
2023-03-07T05:03:07.284Z,100.00
2023-03-07T05:05:34.650Z,100.00
2023-03-07T05:08:03.634Z,100.00
2023-03-07T05:10:30.770Z,100.00
2023-03-07T05:12:57.051Z,100.00
2023-03-07T05:15:23.433Z,100.00
2023-03-07T05:17:49.832Z,100.00
2023-03-07T05:20:16.301Z,100.00
2023-03-07T05:22:42.769Z,100.00
2023-03-07T05:25:09.156Z,100.00
2023-03-07T05:27:35.490Z,100.00
2023-03-07T05:30:01.798Z,100.00
2023-03-07T05:32:28.271Z,100.00
2023-03-07T05:34:54.655Z,100.00
2023-03-07T05:37:21.071Z,100.00
2023-03-07T05:39:47.323Z,100.00
2023-03-07T05:42:13.744Z,100.00
2023-03-07T05:44:40.073Z,100.00
2023-03-07T05:47:07.299Z,100.00
2023-03-07T05:49:33.614Z,100.00
2023-03-07T05:51:59.963Z,100.00
2023-03-07T05:54:26.566Z,100.00
2023-03-07T05:56:53.093Z,100.00
2023-03-07T05:59:19.474Z,100.00
2023-03-07T06:01:45.797Z,100.00
2023-03-07T06:04:12.133Z,100.00
2023-03-07T06:06:38.393Z,100.00
2023-03-07T06:09:05.624Z,100.00
2023-03-07T06:11:32.774Z,100.00
2023-03-07T06:13:59.369Z,100.00
2023-03-07T06:16:25.691Z,100.00
2023-03-07T06:18:52.041Z,100.00
2023-03-07T06:21:18.862Z,100.00
2023-03-07T06:23:45.233Z,100.00
2023-03-07T06:26:12.513Z,100.00
2023-03-07T06:28:39.611Z,100.00
2023-03-07T06:31:13.134Z,100.00
2023-03-07T06:33:39.610Z,100.00
2023-03-07T06:36:06.961Z,100.00
2023-03-07T06:38:33.366Z,100.00
2023-03-07T06:40:59.696Z,100.00
2023-03-07T06:43:26.019Z,100.00
2023-03-07T06:45:52.463Z,100.00
2023-03-07T06:48:18.887Z,100.00
2023-03-07T06:50:45.492Z,100.00
2023-03-07T06:53:11.907Z,100.00
2023-03-07T06:55:38.305Z,100.00
2023-03-07T06:58:04.594Z,100.00
2023-03-07T07:00:31.202Z,100.00
2023-03-07T07:02:58.038Z,100.00
2023-03-07T07:05:24.481Z,100.00
2023-03-07T07:07:50.732Z,100.00
2023-03-07T07:10:17.145Z,100.00
2023-03-07T07:12:43.443Z,100.00
2023-03-07T07:15:09.967Z,100.00
2023-03-07T07:17:36.440Z,100.00
2023-03-07T07:20:05.076Z,100.00
2023-03-07T07:22:31.632Z,100.00
2023-03-07T07:24:58.064Z,100.00
2023-03-07T07:27:24.366Z,100.00
2023-03-07T07:29:50.792Z,100.00
2023-03-07T07:32:17.207Z,100.00
2023-03-07T07:34:43.659Z,100.00
2023-03-07T07:37:10.028Z,100.00
2023-03-07T07:39:36.379Z,100.00
2023-03-07T07:42:02.787Z,100.00
2023-03-07T07:44:30.766Z,100.00
2023-03-07T07:46:57.269Z,100.00
2023-03-07T07:49:23.726Z,100.00
2023-03-07T07:51:50.066Z,100.00
2023-03-07T07:54:16.445Z,100.00
2023-03-07T07:56:42.738Z,100.00
2023-03-07T07:59:09.231Z,100.00
2023-03-07T08:01:35.545Z,100.00
2023-03-07T08:04:01.890Z,100.00
2023-03-07T08:06:28.792Z,100.00
2023-03-07T08:08:55.692Z,100.00
2023-03-07T08:11:22.511Z,100.00
2023-03-07T08:13:48.800Z,100.00
2023-03-07T08:16:16.950Z,100.00
2023-03-07T08:18:47.459Z,100.00
2023-03-07T08:21:13.795Z,100.00
2023-03-07T08:23:40.156Z,100.00
2023-03-07T08:26:07.314Z,100.00
2023-03-07T08:28:33.643Z,100.00
2023-03-07T08:31:07.929Z,100.00
2023-03-07T08:33:34.331Z,100.00
2023-03-07T08:36:00.931Z,100.00
2023-03-07T08:38:28.009Z,100.00
2023-03-07T08:40:54.389Z,100.00
2023-03-07T08:43:23.638Z,100.00
2023-03-07T08:45:53.146Z,100.00
2023-03-07T08:48:20.822Z,100.00
2023-03-07T08:50:47.163Z,100.00
2023-03-07T08:53:14.021Z,100.00
2023-03-07T08:55:40.376Z,100.00
2023-03-07T08:58:07.188Z,100.00
2023-03-07T09:00:33.451Z,100.00
2023-03-07T09:03:01.461Z,100.00
2023-03-07T09:05:28.534Z,100.00
2023-03-07T09:07:54.930Z,100.00
2023-03-07T09:10:22.299Z,100.00
2023-03-07T09:12:51.070Z,100.00
2023-03-07T09:15:17.942Z,100.00
2023-03-07T09:17:44.285Z,100.00
2023-03-07T09:20:11.921Z,100.00
2023-03-07T09:22:38.292Z,100.00
2023-03-07T09:25:04.898Z,100.00
2023-03-07T09:27:31.146Z,100.00
2023-03-07T09:29:57.448Z,100.00
2023-03-07T09:32:23.808Z,100.00
2023-03-07T09:34:51.719Z,100.00
2023-03-07T09:37:18.798Z,100.00
2023-03-07T09:39:45.139Z,100.00
2023-03-07T09:42:32.001Z,100.00
2023-03-07T09:45:16.992Z,100.00
2023-03-07T09:48:01.454Z,100.00
2023-03-07T09:50:27.693Z,100.00
2023-03-07T09:52:58.750Z,100.00
2023-03-07T09:55:25.097Z,100.00
2023-03-07T09:57:55.252Z,100.00
2023-03-07T10:00:26.172Z,100.00
2023-03-07T10:03:14.410Z,100.00
2023-03-07T10:06:01.992Z,100.00
2023-03-07T10:08:29.982Z,100.00
2023-03-07T10:11:04.383Z,100.00
2023-03-07T10:13:50.285Z,100.00
2023-03-07T10:16:36.970Z,100.00
2023-03-07T10:19:25.090Z,100.00
2023-03-07T10:21:51.488Z,100.00
2023-03-07T10:24:17.792Z,100.00
2023-03-07T10:26:52.946Z,100.00
2023-03-07T10:29:22.403Z,100.00
2023-03-07T10:31:50.932Z,100.00
2023-03-07T10:34:27.014Z,100.00
2023-03-07T10:37:08.420Z,100.00
2023-03-07T10:39:41.517Z,100.00
2023-03-07T10:42:10.816Z,100.00
2023-03-07T10:44:37.577Z,100.00
2023-03-07T10:47:04.143Z,100.00
2023-03-07T10:49:39.097Z,100.00
2023-03-07T10:52:12.701Z,100.00
2023-03-07T10:54:39.358Z,100.00
2023-03-07T10:57:16.252Z,100.00
2023-03-07T10:59:43.805Z,100.00
2023-03-07T11:02:28.892Z,100.00
2023-03-07T11:04:55.288Z,100.00
2023-03-07T11:07:24.363Z,100.00
2023-03-07T11:09:50.684Z,100.00
2023-03-07T11:12:19.582Z,100.00
2023-03-07T11:14:51.127Z,100.00
2023-03-07T11:17:20.590Z,100.00
2023-03-07T11:19:47.229Z,100.00
2023-03-07T11:22:33.612Z,100.00
2023-03-07T11:25:01.701Z,100.00
2023-03-07T11:27:33.181Z,100.00
2023-03-07T11:30:16.652Z,100.00
2023-03-07T11:33:05.867Z,100.00
2023-03-07T11:35:46.337Z,100.00
2023-03-07T11:38:24.418Z,100.00
2023-03-07T11:40:50.766Z,100.00
2023-03-07T11:43:33.491Z,100.00
2023-03-07T11:46:03.493Z,100.00
2023-03-07T11:48:42.031Z,100.00
2023-03-07T11:51:21.178Z,100.00
2023-03-07T11:54:00.461Z,100.00
2023-03-07T11:56:33.748Z,100.00
2023-03-07T11:59:15.019Z,100.00
2023-03-07T12:01:50.918Z,100.00
2023-03-07T12:04:46.736Z,100.00
2023-03-07T12:07:21.322Z,100.00
2023-03-07T12:09:54.328Z,100.00
2023-03-07T12:12:27.544Z,100.00
2023-03-07T12:14:54.030Z,100.00
2023-03-07T12:17:20.351Z,100.00
2023-03-07T12:19:55.549Z,100.00
2023-03-07T12:22:21.846Z,100.00
2023-03-07T12:25:07.034Z,100.00
2023-03-07T12:27:45.805Z,100.00
2023-03-07T12:30:34.033Z,100.00
2023-03-07T12:33:00.901Z,100.00
2023-03-07T12:35:32.825Z,100.00
2023-03-07T12:38:04.102Z,100.00
2023-03-07T12:40:47.077Z,100.00
2023-03-07T12:43:13.399Z,100.00
2023-03-07T12:45:49.019Z,100.00
2023-03-07T12:48:19.990Z,100.00
2023-03-07T12:51:04.391Z,100.00
2023-03-07T12:53:37.760Z,100.00
2023-03-07T12:56:18.258Z,100.00
2023-03-07T12:58:49.420Z,100.00
2023-03-07T13:01:19.446Z,100.00
2023-03-07T13:03:51.660Z,100.00
2023-03-07T13:06:19.481Z,100.00
2023-03-07T13:08:50.576Z,100.00
2023-03-07T13:11:22.554Z,100.00
2023-03-07T13:13:59.610Z,100.00
2023-03-07T13:16:32.147Z,100.00
2023-03-07T13:19:17.190Z,100.00
2023-03-07T13:21:43.484Z,100.00
2023-03-07T13:24:30.086Z,100.00
2023-03-07T13:26:56.501Z,100.00
2023-03-07T13:29:41.342Z,100.00
2023-03-07T13:32:27.735Z,100.00
2023-03-07T13:34:54.162Z,100.00
2023-03-07T13:37:39.364Z,100.00
2023-03-07T13:40:21.047Z,100.00
2023-03-07T13:42:48.012Z,100.00
2023-03-07T13:45:45.921Z,100.00
2023-03-07T13:48:15.493Z,100.00
2023-03-07T13:50:41.785Z,100.00
2023-03-07T13:53:13.487Z,100.00
2023-03-07T13:55:41.529Z,100.00
2023-03-07T13:58:25.467Z,100.00
2023-03-07T14:00:54.734Z,100.00
2023-03-07T14:03:26.388Z,100.00
2023-03-07T14:05:54.267Z,100.00
2023-03-07T14:08:23.378Z,100.00
2023-03-07T14:10:50.726Z,100.00
2023-03-07T14:13:32.794Z,100.00
2023-03-07T14:16:17.481Z,100.00
2023-03-07T14:18:44.555Z,100.00
2023-03-07T14:21:10.845Z,100.00
2023-03-07T14:23:55.546Z,100.00
2023-03-07T14:26:26.206Z,100.00
2023-03-07T14:28:59.613Z,100.00
2023-03-07T14:31:30.799Z,100.00
2023-03-07T14:33:57.398Z,100.00
2023-03-07T14:36:25.350Z,100.00
2023-03-07T14:38:54.535Z,100.00
2023-03-07T14:41:25.198Z,100.00
2023-03-07T14:44:07.921Z,100.00
2023-03-07T14:46:57.029Z,100.00
2023-03-07T14:49:35.528Z,100.00
2023-03-07T14:52:03.014Z,100.00
2023-03-07T14:54:31.632Z,100.00
2023-03-07T14:56:59.338Z,100.00
2023-03-07T14:59:29.388Z,100.00
2023-03-07T15:01:56.850Z,100.00
2023-03-07T15:04:28.613Z,100.00
2023-03-07T15:06:56.674Z,100.00
2023-03-07T15:09:23.549Z,100.00
2023-03-07T15:11:54.262Z,100.00
2023-03-07T15:14:23.351Z,100.00
2023-03-07T15:16:50.909Z,100.00
2023-03-07T15:19:21.571Z,100.00
2023-03-07T15:21:51.315Z,100.00
2023-03-07T15:24:27.983Z,100.00
2023-03-07T15:26:55.503Z,100.00
2023-03-07T15:29:23.289Z,100.00
2023-03-07T15:31:49.732Z,100.00
2023-03-07T15:34:22.263Z,100.00
2023-03-07T15:36:48.605Z,100.00
2023-03-07T15:39:26.713Z,100.00
2023-03-07T15:42:19.034Z,100.00
2023-03-07T15:44:52.429Z,100.00
2023-03-07T15:47:19.510Z,100.00
2023-03-07T15:49:50.615Z,100.00
2023-03-07T15:52:20.957Z,100.00
2023-03-07T15:54:50.125Z,100.00
2023-03-07T15:57:18.797Z,100.00
2023-03-07T15:59:51.252Z,100.00
2023-03-07T16:02:32.787Z,100.00
2023-03-07T16:05:00.035Z,100.00
2023-03-07T16:07:26.522Z,100.00
2023-03-07T16:09:52.852Z,100.00
2023-03-07T16:12:21.093Z,100.00
2023-03-07T16:14:47.746Z,100.00
2023-03-07T16:17:19.324Z,100.00
2023-03-07T16:19:45.864Z,100.00
2023-03-07T16:22:16.224Z,100.00
2023-03-07T16:24:42.740Z,100.00
2023-03-07T16:27:13.926Z,100.00
2023-03-07T16:29:40.230Z,100.00
2023-03-07T16:32:08.733Z,100.00
2023-03-07T16:34:35.086Z,100.00
2023-03-07T16:37:01.397Z,100.00
2023-03-07T16:39:27.663Z,100.00
2023-03-07T16:41:53.964Z,100.00
2023-03-07T16:44:21.362Z,100.00
2023-03-07T16:47:04.955Z,100.00
2023-03-07T16:49:31.798Z,100.00
2023-03-07T16:52:05.627Z,100.00
2023-03-07T16:54:32.765Z,100.00
2023-03-07T16:57:00.613Z,100.00
2023-03-07T16:59:31.346Z,100.00
2023-03-07T17:01:57.718Z,100.00
2023-03-07T17:04:24.045Z,100.00
2023-03-07T17:07:00.947Z,100.00
2023-03-07T17:09:30.514Z,100.00
2023-03-07T17:11:57.084Z,100.00
2023-03-07T17:14:23.432Z,100.00
2023-03-07T17:16:50.303Z,100.00
2023-03-07T17:19:23.405Z,100.00
2023-03-07T17:21:49.744Z,100.00
2023-03-07T17:24:16.105Z,100.00
2023-03-07T17:26:43.539Z,100.00
2023-03-07T17:29:13.333Z,100.00
2023-03-07T17:31:41.946Z,100.00
2023-03-07T17:34:14.660Z,100.00
2023-03-07T17:36:41.459Z,100.00
2023-03-07T17:39:09.470Z,100.00
2023-03-07T17:41:35.910Z,100.00
2023-03-07T17:44:02.208Z,100.00
2023-03-07T17:46:28.573Z,100.00
2023-03-07T17:48:55.112Z,100.00
2023-03-07T17:51:21.438Z,100.00
2023-03-07T17:53:47.920Z,100.00
2023-03-07T17:56:14.263Z,100.00
2023-03-07T17:58:40.734Z,100.00
2023-03-07T18:01:08.395Z,100.00
2023-03-07T18:03:34.834Z,100.00
2023-03-07T18:06:01.542Z,100.00
2023-03-07T18:08:28.720Z,100.00
2023-03-07T18:10:55.019Z,100.00
2023-03-07T18:13:24.193Z,100.00
2023-03-07T18:15:50.566Z,100.00
2023-03-07T18:18:17.110Z,100.00
2023-03-07T18:20:43.428Z,100.00
2023-03-07T18:23:09.940Z,100.00
2023-03-07T18:25:36.309Z,100.00
2023-03-07T18:28:02.961Z,100.00
2023-03-07T18:30:29.367Z,100.00
2023-03-07T18:32:55.660Z,100.00
2023-03-07T18:35:23.465Z,100.00
2023-03-07T18:37:50.031Z,100.00
2023-03-07T18:40:19.345Z,100.00
2023-03-07T18:42:45.697Z,100.00
2023-03-07T18:45:12.138Z,100.00
2023-03-07T18:47:38.423Z,100.00
2023-03-07T18:50:05.000Z,100.00
2023-03-07T18:52:31.306Z,100.00
2023-03-07T18:54:57.638Z,100.00
2023-03-07T18:57:24.132Z,100.00
2023-03-07T18:59:50.988Z,100.00
2023-03-07T19:02:20.168Z,100.00
2023-03-07T19:04:46.517Z,100.00
2023-03-07T19:07:12.792Z,100.00
2023-03-07T19:09:39.097Z,100.00
2023-03-07T19:12:05.570Z,100.00
2023-03-07T19:14:33.064Z,100.00
2023-03-07T19:16:59.403Z,100.00
2023-03-07T19:19:25.694Z,100.00
2023-03-07T19:21:51.981Z,100.00
2023-03-07T19:24:18.313Z,100.00
2023-03-07T19:26:44.607Z,100.00
2023-03-07T19:29:12.580Z,100.00
2023-03-07T19:31:39.209Z,100.00
2023-03-07T19:34:06.318Z,100.00
2023-03-07T19:36:35.071Z,100.00
2023-03-07T19:39:02.132Z,100.00
2023-03-07T19:41:29.251Z,100.00
2023-03-07T19:43:56.404Z,100.00
2023-03-07T19:46:23.100Z,100.00
2023-03-07T19:48:49.454Z,100.00
2023-03-07T19:51:25.932Z,100.00
2023-03-07T19:53:54.795Z,100.00
2023-03-07T19:56:27.369Z,100.00
2023-03-07T19:58:54.896Z,100.00
2023-03-07T20:01:22.280Z,100.00
2023-03-07T20:03:49.140Z,100.00
2023-03-07T20:06:18.700Z,100.00
2023-03-07T20:08:49.677Z,100.00
2023-03-07T20:11:17.270Z,100.00
2023-03-07T20:13:45.640Z,100.00
2023-03-07T20:16:12.340Z,100.00
2023-03-07T20:18:39.030Z,100.00
2023-03-07T20:21:06.374Z,100.00
2023-03-07T20:23:33.124Z,100.00
2023-03-07T20:26:03.813Z,100.00
2023-03-07T20:28:30.511Z,100.00
2023-03-07T20:30:56.820Z,100.00
2023-03-07T20:33:23.414Z,100.00
2023-03-07T20:35:58.759Z,100.00
2023-03-07T20:38:25.370Z,100.00
2023-03-07T20:40:58.962Z,100.00
2023-03-07T20:43:25.223Z,100.00
2023-03-07T20:45:51.539Z,100.00
2023-03-07T20:48:17.805Z,100.00
2023-03-07T20:50:44.184Z,100.00
2023-03-07T20:53:10.465Z,100.00
2023-03-07T20:55:36.791Z,100.00
2023-03-07T20:58:03.138Z,100.00
2023-03-07T21:00:29.581Z,100.00
2023-03-07T21:03:05.470Z,100.00
2023-03-07T21:05:32.658Z,100.00
2023-03-07T21:07:58.932Z,100.00
2023-03-07T21:10:25.230Z,100.00
2023-03-07T21:12:51.688Z,100.00
2023-03-07T21:15:17.936Z,100.00
2023-03-07T21:17:44.218Z,100.00
2023-03-07T21:20:12.426Z,100.00
2023-03-07T21:22:38.713Z,100.00
2023-03-07T21:25:06.524Z,100.00
2023-03-07T21:27:32.850Z,100.00
2023-03-07T21:29:59.168Z,100.00
2023-03-07T21:32:25.775Z,100.00
2023-03-07T21:34:52.114Z,100.00
2023-03-07T21:37:18.441Z,100.00
2023-03-07T21:39:44.828Z,100.00
2023-03-07T21:42:11.298Z,100.00
2023-03-07T21:44:37.970Z,100.00
2023-03-07T21:47:04.299Z,100.00
2023-03-07T21:49:31.620Z,100.00
2023-03-07T21:51:57.936Z,100.00
2023-03-07T21:54:24.411Z,100.00
2023-03-07T21:56:50.942Z,100.00
2023-03-07T21:59:17.268Z,100.00
2023-03-07T22:01:43.619Z,100.00
2023-03-07T22:04:10.072Z,100.00
2023-03-07T22:06:36.438Z,100.00
2023-03-07T22:09:02.940Z,100.00
2023-03-07T22:11:29.352Z,100.00
2023-03-07T22:13:55.678Z,100.00
2023-03-07T22:16:22.154Z,100.00
2023-03-07T22:18:52.435Z,100.00
2023-03-07T22:21:18.759Z,100.00
2023-03-07T22:23:45.784Z,100.00
2023-03-07T22:26:12.232Z,100.00
2023-03-07T22:28:40.486Z,100.00
2023-03-07T22:31:11.262Z,100.00
2023-03-07T22:33:38.124Z,100.00
2023-03-07T22:36:05.600Z,100.00
2023-03-07T22:38:32.160Z,100.00
2023-03-07T22:41:02.281Z,100.00
2023-03-07T22:43:30.072Z,100.00
2023-03-07T22:45:56.476Z,100.00
2023-03-07T22:48:22.803Z,100.00
2023-03-07T22:50:49.067Z,100.00
2023-03-07T22:53:15.385Z,100.00
2023-03-07T22:55:42.282Z,100.00
2023-03-07T22:58:09.266Z,100.00
2023-03-07T23:00:35.868Z,100.00
2023-03-07T23:03:02.200Z,100.00
2023-03-07T23:05:29.798Z,100.00
2023-03-07T23:07:56.147Z,100.00
2023-03-07T23:10:22.504Z,100.00
2023-03-07T23:12:50.204Z,100.00
2023-03-07T23:15:16.730Z,100.00
2023-03-07T23:17:43.048Z,100.00
2023-03-07T23:20:09.589Z,100.00
2023-03-07T23:22:35.846Z,100.00
2023-03-07T23:25:02.332Z,100.00
2023-03-07T23:27:28.962Z,100.00
2023-03-07T23:29:55.357Z,100.00
2023-03-07T23:32:21.685Z,100.00
2023-03-07T23:34:48.033Z,100.00
2023-03-07T23:37:14.375Z,100.00
2023-03-07T23:39:40.682Z,100.00
2023-03-07T23:42:07.142Z,100.00
2023-03-07T23:44:33.520Z,100.00
2023-03-07T23:46:59.790Z,100.00
2023-03-07T23:49:26.091Z,100.00
2023-03-07T23:51:55.036Z,100.00
2023-03-07T23:54:21.423Z,100.00
2023-03-07T23:56:47.734Z,100.00
2023-03-07T23:59:14.155Z,100.00
